sensor_id;sensor_type;location;lat;lon;timestamp;temperature;humidity
20648;DHT22;10483;44.646;10.924;2022-08-06T00:02:13;30.40;89.30
20648;DHT22;10483;44.646;10.924;2022-08-06T00:04:40;30.40;88.90
20648;DHT22;10483;44.646;10.924;2022-08-06T00:07:06;30.40;89.50
20648;DHT22;10483;44.646;10.924;2022-08-06T00:09:33;30.40;89.00
20648;DHT22;10483;44.646;10.924;2022-08-06T00:12:01;30.30;89.00
20648;DHT22;10483;44.646;10.924;2022-08-06T00:14:29;30.30;89.30
20648;DHT22;10483;44.646;10.924;2022-08-06T00:16:57;30.30;89.40
20648;DHT22;10483;44.646;10.924;2022-08-06T00:19:24;30.30;90.10
20648;DHT22;10483;44.646;10.924;2022-08-06T00:21:52;30.30;90.00
20648;DHT22;10483;44.646;10.924;2022-08-06T00:24:21;30.30;90.00
20648;DHT22;10483;44.646;10.924;2022-08-06T00:26:48;30.30;89.70
20648;DHT22;10483;44.646;10.924;2022-08-06T00:29:15;30.30;90.40
20648;DHT22;10483;44.646;10.924;2022-08-06T00:31:41;30.30;90.20
20648;DHT22;10483;44.646;10.924;2022-08-06T00:34:08;30.30;90.00
20648;DHT22;10483;44.646;10.924;2022-08-06T00:36:34;30.20;90.50
20648;DHT22;10483;44.646;10.924;2022-08-06T00:39:04;30.30;90.90
20648;DHT22;10483;44.646;10.924;2022-08-06T00:41:31;30.20;90.40
20648;DHT22;10483;44.646;10.924;2022-08-06T00:43:59;30.20;90.40
20648;DHT22;10483;44.646;10.924;2022-08-06T00:46:26;30.20;90.40
20648;DHT22;10483;44.646;10.924;2022-08-06T00:48:53;30.10;91.00
20648;DHT22;10483;44.646;10.924;2022-08-06T00:51:21;30.10;90.90
20648;DHT22;10483;44.646;10.924;2022-08-06T00:53:49;30.10;90.90
20648;DHT22;10483;44.646;10.924;2022-08-06T00:56:16;30.00;91.10
20648;DHT22;10483;44.646;10.924;2022-08-06T00:58:43;30.00;91.20
20648;DHT22;10483;44.646;10.924;2022-08-06T01:01:10;30.00;91.20
20648;DHT22;10483;44.646;10.924;2022-08-06T01:03:37;30.00;91.30
20648;DHT22;10483;44.646;10.924;2022-08-06T01:06:04;30.00;91.30
20648;DHT22;10483;44.646;10.924;2022-08-06T01:08:30;30.00;91.40
20648;DHT22;10483;44.646;10.924;2022-08-06T01:10:57;30.00;91.30
20648;DHT22;10483;44.646;10.924;2022-08-06T01:13:23;30.00;91.40
20648;DHT22;10483;44.646;10.924;2022-08-06T01:16:09;30.00;91.60
20648;DHT22;10483;44.646;10.924;2022-08-06T01:18:41;30.00;91.80
20648;DHT22;10483;44.646;10.924;2022-08-06T01:21:30;30.00;91.60
20648;DHT22;10483;44.646;10.924;2022-08-06T01:24:12;30.00;91.60
20648;DHT22;10483;44.646;10.924;2022-08-06T01:26:44;30.00;91.70
20648;DHT22;10483;44.646;10.924;2022-08-06T01:29:20;30.00;91.70
20648;DHT22;10483;44.646;10.924;2022-08-06T01:31:55;30.00;91.70
20648;DHT22;10483;44.646;10.924;2022-08-06T01:34:30;30.00;91.70
20648;DHT22;10483;44.646;10.924;2022-08-06T01:37:16;30.00;91.80
20648;DHT22;10483;44.646;10.924;2022-08-06T01:39:44;30.00;91.80
20648;DHT22;10483;44.646;10.924;2022-08-06T01:42:14;30.00;91.90
20648;DHT22;10483;44.646;10.924;2022-08-06T01:44:43;30.00;91.80
20648;DHT22;10483;44.646;10.924;2022-08-06T01:47:12;30.00;91.80
20648;DHT22;10483;44.646;10.924;2022-08-06T01:49:45;30.00;91.80
20648;DHT22;10483;44.646;10.924;2022-08-06T01:52:11;30.00;91.80
20648;DHT22;10483;44.646;10.924;2022-08-06T01:54:41;30.00;91.80
20648;DHT22;10483;44.646;10.924;2022-08-06T01:57:09;30.00;92.00
20648;DHT22;10483;44.646;10.924;2022-08-06T01:59:39;30.00;92.00
20648;DHT22;10483;44.646;10.924;2022-08-06T02:02:09;30.00;92.10
20648;DHT22;10483;44.646;10.924;2022-08-06T02:04:40;30.00;92.00
20648;DHT22;10483;44.646;10.924;2022-08-06T02:07:09;30.00;91.80
20648;DHT22;10483;44.646;10.924;2022-08-06T02:09:38;30.00;91.70
20648;DHT22;10483;44.646;10.924;2022-08-06T02:12:10;30.00;91.80
20648;DHT22;10483;44.646;10.924;2022-08-06T02:14:42;30.00;91.70
20648;DHT22;10483;44.646;10.924;2022-08-06T02:17:12;30.00;92.00
20648;DHT22;10483;44.646;10.924;2022-08-06T02:19:43;29.90;92.10
20648;DHT22;10483;44.646;10.924;2022-08-06T02:22:10;29.90;92.30
20648;DHT22;10483;44.646;10.924;2022-08-06T02:24:38;29.90;92.10
20648;DHT22;10483;44.646;10.924;2022-08-06T02:27:06;29.90;92.30
20648;DHT22;10483;44.646;10.924;2022-08-06T02:29:35;29.90;92.40
20648;DHT22;10483;44.646;10.924;2022-08-06T02:32:03;29.90;92.60
20648;DHT22;10483;44.646;10.924;2022-08-06T02:34:30;29.80;92.60
20648;DHT22;10483;44.646;10.924;2022-08-06T02:37:02;29.80;92.60
20648;DHT22;10483;44.646;10.924;2022-08-06T02:39:35;29.80;92.80
20648;DHT22;10483;44.646;10.924;2022-08-06T02:42:06;29.80;92.80
20648;DHT22;10483;44.646;10.924;2022-08-06T02:44:46;29.80;92.90
20648;DHT22;10483;44.646;10.924;2022-08-06T02:47:17;29.70;93.00
20648;DHT22;10483;44.646;10.924;2022-08-06T02:49:47;29.70;93.20
20648;DHT22;10483;44.646;10.924;2022-08-06T02:52:19;29.70;93.30
20648;DHT22;10483;44.646;10.924;2022-08-06T02:54:53;29.70;93.50
20648;DHT22;10483;44.646;10.924;2022-08-06T02:57:30;29.60;93.60
20648;DHT22;10483;44.646;10.924;2022-08-06T03:00:01;29.60;93.60
20648;DHT22;10483;44.646;10.924;2022-08-06T03:02:29;29.60;93.40
20648;DHT22;10483;44.646;10.924;2022-08-06T03:04:56;29.60;93.50
20648;DHT22;10483;44.646;10.924;2022-08-06T03:07:26;29.60;93.50
20648;DHT22;10483;44.646;10.924;2022-08-06T03:09:55;29.60;93.50
20648;DHT22;10483;44.646;10.924;2022-08-06T03:12:23;29.60;93.40
20648;DHT22;10483;44.646;10.924;2022-08-06T03:14:53;29.60;93.40
20648;DHT22;10483;44.646;10.924;2022-08-06T03:17:21;29.60;93.50
20648;DHT22;10483;44.646;10.924;2022-08-06T03:19:50;29.60;93.60
20648;DHT22;10483;44.646;10.924;2022-08-06T03:22:19;29.60;93.40
20648;DHT22;10483;44.646;10.924;2022-08-06T03:24:47;29.60;93.40
20648;DHT22;10483;44.646;10.924;2022-08-06T03:27:16;29.60;93.30
20648;DHT22;10483;44.646;10.924;2022-08-06T03:29:44;29.40;93.90
20648;DHT22;10483;44.646;10.924;2022-08-06T03:32:12;29.40;93.80
20648;DHT22;10483;44.646;10.924;2022-08-06T03:34:40;29.30;93.70
20648;DHT22;10483;44.646;10.924;2022-08-06T03:37:08;29.10;93.60
20648;DHT22;10483;44.646;10.924;2022-08-06T03:39:39;29.10;93.60
20648;DHT22;10483;44.646;10.924;2022-08-06T03:42:06;29.00;93.40
20648;DHT22;10483;44.646;10.924;2022-08-06T03:44:33;29.00;93.30
20648;DHT22;10483;44.646;10.924;2022-08-06T03:49:52;29.00;93.00
20648;DHT22;10483;44.646;10.924;2022-08-06T03:52:24;29.00;93.20
20648;DHT22;10483;44.646;10.924;2022-08-06T03:54:52;29.00;92.70
20648;DHT22;10483;44.646;10.924;2022-08-06T03:57:23;29.00;92.60
20648;DHT22;10483;44.646;10.924;2022-08-06T03:59:51;28.90;92.50
20648;DHT22;10483;44.646;10.924;2022-08-06T04:02:20;28.90;92.40
20648;DHT22;10483;44.646;10.924;2022-08-06T04:04:47;28.90;92.40
20648;DHT22;10483;44.646;10.924;2022-08-06T04:07:15;28.80;92.40
20648;DHT22;10483;44.646;10.924;2022-08-06T04:09:44;28.80;92.50
20648;DHT22;10483;44.646;10.924;2022-08-06T04:12:11;28.80;92.40
20648;DHT22;10483;44.646;10.924;2022-08-06T04:14:38;28.80;92.50
20648;DHT22;10483;44.646;10.924;2022-08-06T04:17:06;28.80;92.30
20648;DHT22;10483;44.646;10.924;2022-08-06T04:19:34;28.80;92.20
20648;DHT22;10483;44.646;10.924;2022-08-06T04:22:01;28.80;92.10
20648;DHT22;10483;44.646;10.924;2022-08-06T04:24:28;28.80;92.10
20648;DHT22;10483;44.646;10.924;2022-08-06T04:26:58;28.80;92.30
20648;DHT22;10483;44.646;10.924;2022-08-06T04:29:25;28.90;92.70
20648;DHT22;10483;44.646;10.924;2022-08-06T04:31:52;29.00;92.40
20648;DHT22;10483;44.646;10.924;2022-08-06T04:34:22;29.00;92.50
20648;DHT22;10483;44.646;10.924;2022-08-06T04:36:51;29.00;92.30
20648;DHT22;10483;44.646;10.924;2022-08-06T04:39:20;29.10;92.40
20648;DHT22;10483;44.646;10.924;2022-08-06T04:41:50;29.20;92.60
20648;DHT22;10483;44.646;10.924;2022-08-06T04:44:17;29.10;91.80
20648;DHT22;10483;44.646;10.924;2022-08-06T04:46:45;29.10;91.60
20648;DHT22;10483;44.646;10.924;2022-08-06T04:49:16;29.10;91.50
20648;DHT22;10483;44.646;10.924;2022-08-06T04:51:46;29.10;91.70
20648;DHT22;10483;44.646;10.924;2022-08-06T04:54:14;29.10;91.60
20648;DHT22;10483;44.646;10.924;2022-08-06T04:56:42;29.10;91.80
20648;DHT22;10483;44.646;10.924;2022-08-06T04:59:10;29.10;91.80
20648;DHT22;10483;44.646;10.924;2022-08-06T05:01:37;29.10;91.80
20648;DHT22;10483;44.646;10.924;2022-08-06T05:04:04;29.10;91.90
20648;DHT22;10483;44.646;10.924;2022-08-06T05:06:55;29.00;91.50
20648;DHT22;10483;44.646;10.924;2022-08-06T05:09:25;28.90;91.60
20648;DHT22;10483;44.646;10.924;2022-08-06T05:11:56;28.80;91.60
20648;DHT22;10483;44.646;10.924;2022-08-06T05:14:28;28.80;91.60
20648;DHT22;10483;44.646;10.924;2022-08-06T05:16:56;28.80;91.70
20648;DHT22;10483;44.646;10.924;2022-08-06T05:19:26;28.80;91.60
20648;DHT22;10483;44.646;10.924;2022-08-06T05:21:55;28.80;91.60
20648;DHT22;10483;44.646;10.924;2022-08-06T05:24:23;28.80;91.70
20648;DHT22;10483;44.646;10.924;2022-08-06T05:26:50;28.90;91.70
20648;DHT22;10483;44.646;10.924;2022-08-06T05:29:19;29.00;91.60
20648;DHT22;10483;44.646;10.924;2022-08-06T05:31:46;29.00;92.10
20648;DHT22;10483;44.646;10.924;2022-08-06T05:34:14;29.00;91.70
20648;DHT22;10483;44.646;10.924;2022-08-06T05:36:41;29.00;91.60
20648;DHT22;10483;44.646;10.924;2022-08-06T05:39:08;29.10;91.60
20648;DHT22;10483;44.646;10.924;2022-08-06T05:41:34;29.10;91.70
20648;DHT22;10483;44.646;10.924;2022-08-06T05:44:02;29.10;91.60
20648;DHT22;10483;44.646;10.924;2022-08-06T05:46:34;29.10;91.90
20648;DHT22;10483;44.646;10.924;2022-08-06T05:49:05;29.10;91.80
20648;DHT22;10483;44.646;10.924;2022-08-06T05:51:39;29.10;91.80
20648;DHT22;10483;44.646;10.924;2022-08-06T05:54:10;29.10;91.90
20648;DHT22;10483;44.646;10.924;2022-08-06T05:56:41;29.20;91.90
20648;DHT22;10483;44.646;10.924;2022-08-06T05:59:16;29.10;91.90
20648;DHT22;10483;44.646;10.924;2022-08-06T06:01:41;29.10;92.00
20648;DHT22;10483;44.646;10.924;2022-08-06T06:04:08;29.10;92.00
20648;DHT22;10483;44.646;10.924;2022-08-06T06:06:35;29.10;92.10
20648;DHT22;10483;44.646;10.924;2022-08-06T06:09:02;29.20;92.30
20648;DHT22;10483;44.646;10.924;2022-08-06T06:11:29;29.20;92.20
20648;DHT22;10483;44.646;10.924;2022-08-06T06:13:56;29.20;92.20
20648;DHT22;10483;44.646;10.924;2022-08-06T06:16:31;29.20;92.20
20648;DHT22;10483;44.646;10.924;2022-08-06T06:21:59;29.30;92.10
20648;DHT22;10483;44.646;10.924;2022-08-06T06:24:37;29.30;92.10
20648;DHT22;10483;44.646;10.924;2022-08-06T06:27:11;29.40;92.30
20648;DHT22;10483;44.646;10.924;2022-08-06T06:29:54;29.40;93.00
20648;DHT22;10483;44.646;10.924;2022-08-06T06:32:22;29.50;92.80
20648;DHT22;10483;44.646;10.924;2022-08-06T06:34:57;29.50;92.50
20648;DHT22;10483;44.646;10.924;2022-08-06T06:45:39;29.60;93.00
20648;DHT22;10483;44.646;10.924;2022-08-06T06:48:30;29.60;93.00
20648;DHT22;10483;44.646;10.924;2022-08-06T06:50:59;29.60;93.20
20648;DHT22;10483;44.646;10.924;2022-08-06T06:53:29;29.70;93.20
20648;DHT22;10483;44.646;10.924;2022-08-06T06:55:57;29.70;93.40
20648;DHT22;10483;44.646;10.924;2022-08-06T06:58:39;29.70;93.50
20648;DHT22;10483;44.646;10.924;2022-08-06T07:01:08;29.70;93.70
20648;DHT22;10483;44.646;10.924;2022-08-06T07:03:37;29.70;93.70
20648;DHT22;10483;44.646;10.924;2022-08-06T07:06:06;29.70;93.90
20648;DHT22;10483;44.646;10.924;2022-08-06T07:08:37;29.70;93.90
20648;DHT22;10483;44.646;10.924;2022-08-06T07:11:06;29.70;93.90
20648;DHT22;10483;44.646;10.924;2022-08-06T07:13:35;29.70;93.90
20648;DHT22;10483;44.646;10.924;2022-08-06T07:16:04;29.70;93.90
20648;DHT22;10483;44.646;10.924;2022-08-06T07:18:33;29.80;93.80
20648;DHT22;10483;44.646;10.924;2022-08-06T07:21:01;29.80;93.80
20648;DHT22;10483;44.646;10.924;2022-08-06T07:23:29;29.90;93.80
20648;DHT22;10483;44.646;10.924;2022-08-06T07:25:58;29.90;93.80
20648;DHT22;10483;44.646;10.924;2022-08-06T07:28:26;29.90;93.90
20648;DHT22;10483;44.646;10.924;2022-08-06T07:30:57;30.00;93.70
20648;DHT22;10483;44.646;10.924;2022-08-06T07:33:25;30.00;93.60
20648;DHT22;10483;44.646;10.924;2022-08-06T07:35:53;30.00;93.50
20648;DHT22;10483;44.646;10.924;2022-08-06T07:38:21;30.10;93.80
20648;DHT22;10483;44.646;10.924;2022-08-06T07:40:52;30.10;93.60
20648;DHT22;10483;44.646;10.924;2022-08-06T07:43:23;30.20;93.60
20648;DHT22;10483;44.646;10.924;2022-08-06T07:45:50;30.30;93.40
20648;DHT22;10483;44.646;10.924;2022-08-06T07:48:20;30.20;93.40
20648;DHT22;10483;44.646;10.924;2022-08-06T07:50:49;30.30;93.40
20648;DHT22;10483;44.646;10.924;2022-08-06T07:53:18;30.30;93.30
20648;DHT22;10483;44.646;10.924;2022-08-06T07:55:46;30.30;93.10
20648;DHT22;10483;44.646;10.924;2022-08-06T07:58:14;30.40;93.20
20648;DHT22;10483;44.646;10.924;2022-08-06T08:00:41;30.40;93.10
20648;DHT22;10483;44.646;10.924;2022-08-06T08:03:09;30.50;93.20
20648;DHT22;10483;44.646;10.924;2022-08-06T08:05:43;30.50;93.00
20648;DHT22;10483;44.646;10.924;2022-08-06T08:08:16;30.60;93.00
20648;DHT22;10483;44.646;10.924;2022-08-06T08:10:44;30.60;93.00
20648;DHT22;10483;44.646;10.924;2022-08-06T08:13:11;30.70;93.00
20648;DHT22;10483;44.646;10.924;2022-08-06T08:15:38;30.80;93.00
20648;DHT22;10483;44.646;10.924;2022-08-06T08:18:06;30.80;92.80
20648;DHT22;10483;44.646;10.924;2022-08-06T08:20:33;30.80;93.10
20648;DHT22;10483;44.646;10.924;2022-08-06T08:23:04;30.90;92.80
20648;DHT22;10483;44.646;10.924;2022-08-06T08:25:31;31.00;92.70
20648;DHT22;10483;44.646;10.924;2022-08-06T08:27:58;31.10;92.70
20648;DHT22;10483;44.646;10.924;2022-08-06T08:30:25;31.10;92.90
20648;DHT22;10483;44.646;10.924;2022-08-06T08:32:52;31.20;92.60
20648;DHT22;10483;44.646;10.924;2022-08-06T08:35:18;31.30;92.80
20648;DHT22;10483;44.646;10.924;2022-08-06T08:37:45;31.30;93.00
20648;DHT22;10483;44.646;10.924;2022-08-06T08:40:12;31.40;92.80
20648;DHT22;10483;44.646;10.924;2022-08-06T08:42:43;31.30;93.00
20648;DHT22;10483;44.646;10.924;2022-08-06T08:45:13;31.40;92.80
20648;DHT22;10483;44.646;10.924;2022-08-06T08:47:44;31.50;92.30
20648;DHT22;10483;44.646;10.924;2022-08-06T08:50:12;31.50;92.80
20648;DHT22;10483;44.646;10.924;2022-08-06T08:52:40;31.60;92.60
20648;DHT22;10483;44.646;10.924;2022-08-06T08:55:11;31.60;92.60
20648;DHT22;10483;44.646;10.924;2022-08-06T08:57:41;31.70;92.90
20648;DHT22;10483;44.646;10.924;2022-08-06T09:00:09;31.70;93.50
20648;DHT22;10483;44.646;10.924;2022-08-06T09:02:38;31.70;93.60
20648;DHT22;10483;44.646;10.924;2022-08-06T09:05:06;31.80;92.50
20648;DHT22;10483;44.646;10.924;2022-08-06T09:07:33;31.80;93.30
20648;DHT22;10483;44.646;10.924;2022-08-06T09:10:00;31.80;93.20
20648;DHT22;10483;44.646;10.924;2022-08-06T09:12:27;31.80;92.40
20648;DHT22;10483;44.646;10.924;2022-08-06T09:14:54;31.90;92.40
20648;DHT22;10483;44.646;10.924;2022-08-06T09:17:21;31.90;92.30
20648;DHT22;10483;44.646;10.924;2022-08-06T09:19:49;32.00;92.90
20648;DHT22;10483;44.646;10.924;2022-08-06T09:22:16;32.00;94.30
20648;DHT22;10483;44.646;10.924;2022-08-06T09:24:43;31.90;94.30
20648;DHT22;10483;44.646;10.924;2022-08-06T09:27:12;31.80;93.90
20648;DHT22;10483;44.646;10.924;2022-08-06T09:29:50;32.10;90.90
20648;DHT22;10483;44.646;10.924;2022-08-06T09:34:55;32.30;92.10
20648;DHT22;10483;44.646;10.924;2022-08-06T09:37:27;32.30;92.90
20648;DHT22;10483;44.646;10.924;2022-08-06T09:39:55;32.30;92.90
20648;DHT22;10483;44.646;10.924;2022-08-06T09:45:07;32.30;93.40
20648;DHT22;10483;44.646;10.924;2022-08-06T09:47:36;32.30;93.80
20648;DHT22;10483;44.646;10.924;2022-08-06T09:50:05;32.30;94.10
20648;DHT22;10483;44.646;10.924;2022-08-06T09:52:32;32.40;94.10
20648;DHT22;10483;44.646;10.924;2022-08-06T09:54:59;32.50;94.00
20648;DHT22;10483;44.646;10.924;2022-08-06T10:00:01;32.70;94.10
20648;DHT22;10483;44.646;10.924;2022-08-06T10:02:32;32.80;93.80
20648;DHT22;10483;44.646;10.924;2022-08-06T10:05:06;33.00;94.00
20648;DHT22;10483;44.646;10.924;2022-08-06T10:07:34;33.10;94.10
20648;DHT22;10483;44.646;10.924;2022-08-06T10:10:01;33.40;93.60
20648;DHT22;10483;44.646;10.924;2022-08-06T10:12:27;33.60;93.40
20648;DHT22;10483;44.646;10.924;2022-08-06T10:14:54;34.00;92.50
20648;DHT22;10483;44.646;10.924;2022-08-06T10:17:21;34.20;92.70
20648;DHT22;10483;44.646;10.924;2022-08-06T10:20:08;34.50;92.40
20648;DHT22;10483;44.646;10.924;2022-08-06T10:25:11;35.40;91.60
20648;DHT22;10483;44.646;10.924;2022-08-06T10:27:39;35.80;91.10
20648;DHT22;10483;44.646;10.924;2022-08-06T10:30:08;36.30;90.60
20648;DHT22;10483;44.646;10.924;2022-08-06T10:32:52;36.60;90.40
20648;DHT22;10483;44.646;10.924;2022-08-06T10:35:22;36.50;90.20
20648;DHT22;10483;44.646;10.924;2022-08-06T10:37:52;36.30;89.40
20648;DHT22;10483;44.646;10.924;2022-08-06T10:40:21;36.40;86.80
20648;DHT22;10483;44.646;10.924;2022-08-06T10:42:48;36.40;86.80
20648;DHT22;10483;44.646;10.924;2022-08-06T10:45:17;36.30;90.00
20648;DHT22;10483;44.646;10.924;2022-08-06T10:47:46;36.00;91.00
20648;DHT22;10483;44.646;10.924;2022-08-06T10:50:14;35.80;90.50
20648;DHT22;10483;44.646;10.924;2022-08-06T10:52:43;35.30;90.60
20648;DHT22;10483;44.646;10.924;2022-08-06T10:55:10;35.80;87.40
20648;DHT22;10483;44.646;10.924;2022-08-06T10:57:38;36.30;85.00
20648;DHT22;10483;44.646;10.924;2022-08-06T11:00:07;35.80;89.40
20648;DHT22;10483;44.646;10.924;2022-08-06T11:02:41;35.80;85.70
20648;DHT22;10483;44.646;10.924;2022-08-06T11:05:12;35.30;89.40
20648;DHT22;10483;44.646;10.924;2022-08-06T11:07:54;34.80;90.00
20648;DHT22;10483;44.646;10.924;2022-08-06T11:13:26;34.60;89.50
20648;DHT22;10483;44.646;10.924;2022-08-06T11:15:52;34.60;89.80
20648;DHT22;10483;44.646;10.924;2022-08-06T11:18:21;34.80;88.20
20648;DHT22;10483;44.646;10.924;2022-08-06T11:20:49;34.90;88.20
20648;DHT22;10483;44.646;10.924;2022-08-06T11:23:26;34.50;91.00
20648;DHT22;10483;44.646;10.924;2022-08-06T11:25:58;34.50;90.80
20648;DHT22;10483;44.646;10.924;2022-08-06T11:29:00;34.30;92.00
20648;DHT22;10483;44.646;10.924;2022-08-06T11:31:32;34.40;90.70
20648;DHT22;10483;44.646;10.924;2022-08-06T11:34:02;34.30;91.10
20648;DHT22;10483;44.646;10.924;2022-08-06T11:36:42;34.40;89.30
20648;DHT22;10483;44.646;10.924;2022-08-06T11:38:59;34.50;88.30
20648;DHT22;10483;44.646;10.924;2022-08-06T11:41:28;34.40;91.30
20648;DHT22;10483;44.646;10.924;2022-08-06T11:44:10;34.50;87.40
20648;DHT22;10483;44.646;10.924;2022-08-06T11:46:40;34.70;86.60
20648;DHT22;10483;44.646;10.924;2022-08-06T11:49:18;34.50;89.70
20648;DHT22;10483;44.646;10.924;2022-08-06T11:54:34;33.80;92.30
20648;DHT22;10483;44.646;10.924;2022-08-06T11:57:17;33.60;92.40
20648;DHT22;10483;44.646;10.924;2022-08-06T12:00:04;33.70;91.10
20648;DHT22;10483;44.646;10.924;2022-08-06T12:05:38;33.60;91.90
20648;DHT22;10483;44.646;10.924;2022-08-06T12:08:14;33.60;91.80
20648;DHT22;10483;44.646;10.924;2022-08-06T12:13:36;33.20;92.50
20648;DHT22;10483;44.646;10.924;2022-08-06T12:15:52;33.30;91.30
20648;DHT22;10483;44.646;10.924;2022-08-06T12:18:19;33.70;85.60
20648;DHT22;10483;44.646;10.924;2022-08-06T12:20:46;33.60;89.10
20648;DHT22;10483;44.646;10.924;2022-08-06T12:23:14;33.80;85.70
20648;DHT22;10483;44.646;10.924;2022-08-06T12:25:43;34.00;86.60
20648;DHT22;10483;44.646;10.924;2022-08-06T12:28:11;34.00;86.80
20648;DHT22;10483;44.646;10.924;2022-08-06T12:30:43;34.20;83.60
20648;DHT22;10483;44.646;10.924;2022-08-06T12:33:11;34.20;86.00
20648;DHT22;10483;44.646;10.924;2022-08-06T12:35:50;34.10;89.20
20648;DHT22;10483;44.646;10.924;2022-08-06T12:38:18;33.90;90.40
20648;DHT22;10483;44.646;10.924;2022-08-06T12:40:52;34.00;88.20
20648;DHT22;10483;44.646;10.924;2022-08-06T12:43:19;34.10;86.50
20648;DHT22;10483;44.646;10.924;2022-08-06T12:45:46;34.00;90.10
20648;DHT22;10483;44.646;10.924;2022-08-06T12:48:13;33.60;90.90
20648;DHT22;10483;44.646;10.924;2022-08-06T12:50:42;33.80;88.90
20648;DHT22;10483;44.646;10.924;2022-08-06T12:53:11;33.80;88.00
20648;DHT22;10483;44.646;10.924;2022-08-06T12:55:45;34.00;85.30
20648;DHT22;10483;44.646;10.924;2022-08-06T12:58:15;34.00;89.30
20648;DHT22;10483;44.646;10.924;2022-08-06T13:00:45;34.00;85.30
20648;DHT22;10483;44.646;10.924;2022-08-06T13:03:12;34.00;85.90
20648;DHT22;10483;44.646;10.924;2022-08-06T13:05:41;34.10;86.70
20648;DHT22;10483;44.646;10.924;2022-08-06T13:08:08;34.10;87.80
20648;DHT22;10483;44.646;10.924;2022-08-06T13:10:35;34.10;88.20
20648;DHT22;10483;44.646;10.924;2022-08-06T13:13:03;34.00;87.80
20648;DHT22;10483;44.646;10.924;2022-08-06T13:15:31;33.90;88.70
20648;DHT22;10483;44.646;10.924;2022-08-06T13:18:09;33.80;88.70
20648;DHT22;10483;44.646;10.924;2022-08-06T13:20:45;33.90;87.20
20648;DHT22;10483;44.646;10.924;2022-08-06T13:23:13;33.90;86.60
20648;DHT22;10483;44.646;10.924;2022-08-06T13:25:43;34.00;87.40
20648;DHT22;10483;44.646;10.924;2022-08-06T13:28:11;33.80;89.40
20648;DHT22;10483;44.646;10.924;2022-08-06T13:30:38;33.80;87.50
20648;DHT22;10483;44.646;10.924;2022-08-06T13:33:13;33.80;88.80
20648;DHT22;10483;44.646;10.924;2022-08-06T13:35:40;33.70;88.70
20648;DHT22;10483;44.646;10.924;2022-08-06T13:38:06;33.80;88.70
20648;DHT22;10483;44.646;10.924;2022-08-06T13:40:44;33.80;85.60
20648;DHT22;10483;44.646;10.924;2022-08-06T13:43:11;33.90;87.50
20648;DHT22;10483;44.646;10.924;2022-08-06T13:45:38;33.90;87.40
20648;DHT22;10483;44.646;10.924;2022-08-06T13:48:08;33.80;86.50
20648;DHT22;10483;44.646;10.924;2022-08-06T13:50:37;33.90;86.40
20648;DHT22;10483;44.646;10.924;2022-08-06T13:53:05;33.90;86.40
20648;DHT22;10483;44.646;10.924;2022-08-06T13:55:32;34.00;86.40
20648;DHT22;10483;44.646;10.924;2022-08-06T13:57:59;33.90;87.40
20648;DHT22;10483;44.646;10.924;2022-08-06T14:00:26;33.90;87.70
20648;DHT22;10483;44.646;10.924;2022-08-06T14:02:54;33.80;88.50
20648;DHT22;10483;44.646;10.924;2022-08-06T14:05:21;33.80;87.80
20648;DHT22;10483;44.646;10.924;2022-08-06T14:07:49;33.80;88.00
20648;DHT22;10483;44.646;10.924;2022-08-06T14:10:16;33.80;89.60
20648;DHT22;10483;44.646;10.924;2022-08-06T14:12:43;33.60;90.20
20648;DHT22;10483;44.646;10.924;2022-08-06T14:15:12;33.60;89.50
20648;DHT22;10483;44.646;10.924;2022-08-06T14:17:38;33.80;87.00
20648;DHT22;10483;44.646;10.924;2022-08-06T14:20:05;33.80;89.50
20648;DHT22;10483;44.646;10.924;2022-08-06T14:22:32;33.70;89.90
20648;DHT22;10483;44.646;10.924;2022-08-06T14:24:59;33.50;90.40
20648;DHT22;10483;44.646;10.924;2022-08-06T14:27:25;33.60;90.20
20648;DHT22;10483;44.646;10.924;2022-08-06T14:29:52;33.60;88.80
20648;DHT22;10483;44.646;10.924;2022-08-06T14:32:19;33.40;90.40
20648;DHT22;10483;44.646;10.924;2022-08-06T14:34:45;33.30;90.90
20648;DHT22;10483;44.646;10.924;2022-08-06T14:37:12;33.10;91.00
20648;DHT22;10483;44.646;10.924;2022-08-06T14:39:39;33.10;90.40
20648;DHT22;10483;44.646;10.924;2022-08-06T14:42:05;33.30;90.40
20648;DHT22;10483;44.646;10.924;2022-08-06T14:44:38;33.40;90.00
20648;DHT22;10483;44.646;10.924;2022-08-06T14:47:10;33.60;86.70
20648;DHT22;10483;44.646;10.924;2022-08-06T14:49:37;33.80;86.20
20648;DHT22;10483;44.646;10.924;2022-08-06T14:52:05;33.90;85.90
20648;DHT22;10483;44.646;10.924;2022-08-06T14:54:33;33.90;86.50
20648;DHT22;10483;44.646;10.924;2022-08-06T14:57:03;33.80;89.90
20648;DHT22;10483;44.646;10.924;2022-08-06T14:59:31;33.60;87.70
20648;DHT22;10483;44.646;10.924;2022-08-06T15:01:57;33.70;89.60
20648;DHT22;10483;44.646;10.924;2022-08-06T15:04:25;33.80;85.20
20648;DHT22;10483;44.646;10.924;2022-08-06T15:06:52;33.80;89.30
20648;DHT22;10483;44.646;10.924;2022-08-06T15:09:20;33.80;89.00
20648;DHT22;10483;44.646;10.924;2022-08-06T15:11:46;33.60;86.60
20648;DHT22;10483;44.646;10.924;2022-08-06T15:14:13;33.60;89.60
20648;DHT22;10483;44.646;10.924;2022-08-06T15:16:40;33.60;87.90
20648;DHT22;10483;44.646;10.924;2022-08-06T15:19:07;33.50;90.50
20648;DHT22;10483;44.646;10.924;2022-08-06T15:21:34;33.60;86.50
20648;DHT22;10483;44.646;10.924;2022-08-06T15:24:00;33.80;86.90
20648;DHT22;10483;44.646;10.924;2022-08-06T15:26:27;33.80;89.60
20648;DHT22;10483;44.646;10.924;2022-08-06T15:28:54;33.60;89.30
20648;DHT22;10483;44.646;10.924;2022-08-06T15:31:21;33.40;90.80
20648;DHT22;10483;44.646;10.924;2022-08-06T15:33:47;33.30;90.10
20648;DHT22;10483;44.646;10.924;2022-08-06T15:36:14;33.60;88.40
20648;DHT22;10483;44.646;10.924;2022-08-06T15:38:40;33.80;88.40
20648;DHT22;10483;44.646;10.924;2022-08-06T15:41:08;33.70;88.90
20648;DHT22;10483;44.646;10.924;2022-08-06T15:43:35;33.60;90.10
20648;DHT22;10483;44.646;10.924;2022-08-06T15:46:01;33.60;90.00
20648;DHT22;10483;44.646;10.924;2022-08-06T15:48:29;33.50;89.60
20648;DHT22;10483;44.646;10.924;2022-08-06T15:50:57;33.50;90.30
20648;DHT22;10483;44.646;10.924;2022-08-06T15:53:26;33.60;90.50
20648;DHT22;10483;44.646;10.924;2022-08-06T15:55:53;33.50;90.70
20648;DHT22;10483;44.646;10.924;2022-08-06T15:58:19;33.60;89.70
20648;DHT22;10483;44.646;10.924;2022-08-06T16:00:46;33.60;90.20
20648;DHT22;10483;44.646;10.924;2022-08-06T16:03:13;33.50;90.30
20648;DHT22;10483;44.646;10.924;2022-08-06T16:05:41;33.60;90.40